Schnellsuche:     vonnach     am:               Ankunft heute   Abflug heute   
Wetterdaten des Sylter Flughafens. Alle Angaben sind ohne Gewähr.



Datum: 2017-10-20 18:00 UTC
   
Windrichtung: 170°
Windgeschwindigkeit: 5 - 12 Kt.
QNH: 1008 hPa
Temperatur: 13 °C
Taupunkt: 12 °C
rel. Luftfeuchte: 94 %

METAR EDXW 201650Z 15010KT 9999 FEW010 13/12 Q1008 RMK ATIS TAN=

Wolkenhöhen in den letzten 48 Stunden:






 


Im Jettempo nach Sylt!



airberlin

Zürich, Stuttgart, München und Düsseldorf
Die airberlin fliegt vom 21. Oktober bis zum 27. Oktober 2018 nach Zürich, vom 21. Oktober bis zum 21. Oktober 2017 nach Stuttgart, vom 21. Oktober bis zum 21. Oktober 2017 nach München und vom 20. Oktober bis zum 27. Oktober 2017 nach Düsseldorf. Zur Seite der airberlin: www.airberlin.com

Lufthansa

München, Frankfurt/Main und Zürich
Die Lufthansa fliegt vom 23. Dezember bis zum 07. Oktober 2018 nach München, vom 21. Oktober bis zum 13. Oktober 2018 nach Frankfurt/Main und vom 21. April bis zum 20. Oktober 2018 nach Zürich. Zur Seite der Lufthansa: www.lufthansa.de